createdAt,value
2017-12-19T00:02:49.297Z,50.13
2017-12-19T00:05:50.628Z,50.53
2017-12-19T00:08:52.641Z,62.83
2017-12-19T00:11:53.953Z,66.27
2017-12-19T00:14:55.999Z,61.17
2017-12-19T00:17:57.376Z,52.87
2017-12-19T00:20:58.720Z,54.03
2017-12-19T00:24:00.761Z,67.57
2017-12-19T00:27:02.136Z,74.57
2017-12-19T00:30:04.248Z,76.73
2017-12-19T00:33:05.549Z,71.23
2017-12-19T00:36:07.575Z,70.17
2017-12-19T00:39:08.849Z,76.30
2017-12-19T00:42:10.133Z,75.97
2017-12-19T00:45:11.421Z,74.60
2017-12-19T00:48:12.702Z,81.53
2017-12-19T00:51:14.772Z,68.53
2017-12-19T00:54:16.755Z,86.63
2017-12-19T00:57:18.061Z,79.60
2017-12-19T01:00:19.306Z,76.63
2017-12-19T01:03:20.589Z,65.33
2017-12-19T01:06:22.620Z,73.93
2017-12-19T01:09:24.613Z,71.30
2017-12-19T01:12:26.630Z,63.80
2017-12-19T01:15:27.969Z,64.03
2017-12-19T01:18:29.238Z,76.57
2017-12-19T01:21:31.260Z,82.80
2017-12-19T01:24:32.502Z,75.83
2017-12-19T01:27:34.544Z,83.63
2017-12-19T01:30:35.792Z,85.47
2017-12-19T01:33:37.060Z,77.43
2017-12-19T01:36:39.068Z,81.77
2017-12-19T01:39:40.344Z,86.70
2017-12-19T01:42:41.645Z,98.97
2017-12-19T01:45:43.182Z,98.20
2017-12-19T01:48:45.224Z,106.40
2017-12-19T01:51:46.494Z,108.17
2017-12-19T01:54:48.488Z,106.50
2017-12-19T01:57:49.772Z,102.87
2017-12-19T02:00:51.032Z,99.10
2017-12-19T02:03:52.340Z,98.57
2017-12-19T02:06:53.584Z,105.17
2017-12-19T02:09:54.844Z,115.50
2017-12-19T02:12:56.097Z,103.20
2017-12-19T02:15:57.381Z,116.83
2017-12-19T02:18:58.635Z,105.30
2017-12-19T02:22:00.709Z,95.07
2017-12-19T02:25:02.724Z,94.03
2017-12-19T02:28:04.057Z,102.43
2017-12-19T02:31:05.359Z,100.37
2017-12-19T02:34:06.676Z,101.67
2017-12-19T02:37:07.992Z,97.23
2017-12-19T02:40:09.260Z,104.13
2017-12-19T02:43:17.792Z,104.73
2017-12-19T02:46:19.056Z,95.90
2017-12-19T02:49:20.380Z,89.93
2017-12-19T02:52:21.691Z,92.47
2017-12-19T02:55:23.698Z,86.63
2017-12-19T02:58:25.061Z,90.87
2017-12-19T03:01:26.312Z,88.67
2017-12-19T03:04:27.632Z,80.73
2017-12-19T03:07:28.901Z,85.60
2017-12-19T03:10:30.201Z,76.27
2017-12-19T03:13:32.233Z,85.40
2017-12-19T03:16:34.333Z,81.47
2017-12-19T03:19:36.358Z,79.90
2017-12-19T03:22:37.767Z,83.97
2017-12-19T03:25:39.062Z,81.07
2017-12-19T03:28:40.382Z,87.80
2017-12-19T03:31:41.664Z,84.27
2017-12-19T03:34:42.960Z,74.40
2017-12-19T03:37:44.252Z,86.07
2017-12-19T03:40:45.546Z,85.87
2017-12-19T03:43:47.552Z,76.97
2017-12-19T03:46:48.833Z,74.90
2017-12-19T03:49:50.151Z,75.90
2017-12-19T03:52:51.418Z,78.20
2017-12-19T03:55:52.702Z,73.87
2017-12-19T03:58:54.029Z,74.63
2017-12-19T04:01:55.327Z,75.10
2017-12-19T04:04:56.640Z,74.03
2017-12-19T04:07:58.638Z,75.27
2017-12-19T04:10:59.960Z,63.70
2017-12-19T04:14:01.980Z,68.17
2017-12-19T04:17:03.284Z,77.77
2017-12-19T04:20:05.321Z,70.30
2017-12-19T04:23:06.588Z,67.17
2017-12-19T04:26:08.622Z,61.33
2017-12-19T04:29:09.970Z,64.43
2017-12-19T04:32:11.230Z,64.10
2017-12-19T04:35:12.534Z,66.70
2017-12-19T04:38:13.780Z,61.73
2017-12-19T04:41:15.094Z,58.90
2017-12-19T04:44:17.123Z,60.93
2017-12-19T04:47:18.408Z,59.23
2017-12-19T04:50:20.465Z,59.27
2017-12-19T04:53:21.772Z,53.60
2017-12-19T04:56:23.053Z,49.80
2017-12-19T04:59:24.333Z,49.57
2017-12-19T05:02:25.637Z,58.50
2017-12-19T05:05:26.948Z,52.60
2017-12-19T05:08:28.272Z,59.47
2017-12-19T05:11:30.327Z,57.17
2017-12-19T05:14:31.665Z,57.80
2017-12-19T05:17:32.949Z,65.67
2017-12-19T05:20:34.973Z,59.43
2017-12-19T05:23:36.246Z,68.93
2017-12-19T05:26:37.519Z,64.87
2017-12-19T05:29:38.842Z,69.67
2017-12-19T05:32:40.097Z,67.07
2017-12-19T05:35:42.130Z,63.77
2017-12-19T05:38:43.408Z,61.20
2017-12-19T05:41:45.473Z,72.07
2017-12-19T05:44:46.780Z,80.07
2017-12-19T05:47:48.022Z,74.87
2017-12-19T05:50:49.306Z,62.27
2017-12-19T05:53:50.559Z,68.20
2017-12-19T05:56:51.839Z,73.70
2017-12-19T05:59:53.089Z,72.80
2017-12-19T06:02:54.393Z,66.83
2017-12-19T06:05:55.695Z,72.83
2017-12-19T06:08:56.952Z,74.90
2017-12-19T06:11:58.279Z,73.20
2017-12-19T06:14:59.559Z,71.73
2017-12-19T06:18:00.814Z,80.57
2017-12-19T06:21:02.133Z,65.17
2017-12-19T06:24:03.421Z,67.73
2017-12-19T06:27:04.720Z,66.63
2017-12-19T06:30:06.787Z,72.20
2017-12-19T06:33:08.805Z,64.20
2017-12-19T06:36:10.105Z,65.73
2017-12-19T06:39:11.382Z,65.87
2017-12-19T06:42:19.738Z,73.67
2017-12-19T06:45:21.048Z,64.60
2017-12-19T06:48:22.279Z,71.43
2017-12-19T06:51:23.568Z,76.17
2017-12-19T06:54:24.833Z,57.97
2017-12-19T06:57:26.131Z,58.47
2017-12-19T07:00:27.408Z,66.67
2017-12-19T07:03:28.685Z,79.10
2017-12-19T07:06:29.981Z,77.57
2017-12-19T07:09:31.302Z,75.60
2017-12-19T07:12:32.562Z,77.00
2017-12-19T07:15:33.849Z,84.93
2017-12-19T07:18:35.120Z,92.83
2017-12-19T07:21:36.405Z,94.67
2017-12-19T07:24:37.682Z,87.60
2017-12-19T07:27:38.959Z,95.27
2017-12-19T07:30:40.272Z,98.53
2017-12-19T07:33:41.577Z,87.77
2017-12-19T07:36:43.668Z,81.30
2017-12-19T07:39:44.941Z,79.17
2017-12-19T07:42:46.352Z,80.30
2017-12-19T07:45:48.371Z,72.97
2017-12-19T07:48:49.646Z,81.43
2017-12-19T07:51:50.921Z,72.00
2017-12-19T07:54:52.974Z,79.43
2017-12-19T07:57:54.994Z,62.57
2017-12-19T08:00:56.241Z,70.87
2017-12-19T08:03:57.540Z,67.00
2017-12-19T08:06:59.564Z,66.73
2017-12-19T08:10:00.853Z,81.30
2017-12-19T08:13:02.871Z,65.93
2017-12-19T08:16:04.153Z,64.43
2017-12-19T08:19:05.429Z,69.10
2017-12-19T08:22:07.420Z,75.40
2017-12-19T08:25:08.724Z,89.47
2017-12-19T08:28:11.823Z,63.77
2017-12-19T08:31:14.604Z,68.50
2017-12-19T08:34:17.768Z,82.37
2017-12-19T08:37:20.349Z,74.27
2017-12-19T08:40:22.393Z,79.00
2017-12-19T08:43:23.651Z,71.60
2017-12-19T08:46:24.970Z,83.43
2017-12-19T08:49:26.209Z,78.37
2017-12-19T08:52:27.473Z,73.57
2017-12-19T08:55:28.725Z,85.87
2017-12-19T08:58:30.009Z,71.33
2017-12-19T09:01:31.264Z,61.30
2017-12-19T09:04:32.518Z,49.17
2017-12-19T09:07:33.797Z,59.10
2017-12-19T09:10:35.048Z,64.77
2017-12-19T09:13:37.177Z,81.83
2017-12-19T09:16:38.497Z,77.73
2017-12-19T09:19:39.775Z,86.83
2017-12-19T09:22:41.012Z,86.87
2017-12-19T09:25:42.277Z,88.77
2017-12-19T09:28:43.541Z,81.20
2017-12-19T09:31:45.537Z,91.67
2017-12-19T09:34:46.811Z,99.13
2017-12-19T09:37:48.064Z,93.83
2017-12-19T09:40:50.085Z,87.67
2017-12-19T09:43:51.324Z,128.53
2017-12-19T09:46:52.582Z,93.00
2017-12-19T09:49:53.872Z,89.13
2017-12-19T09:52:55.124Z,92.77
2017-12-19T09:55:56.389Z,95.00
2017-12-19T09:58:57.639Z,92.47
2017-12-19T10:01:58.895Z,90.43
2017-12-19T10:05:00.893Z,95.97
2017-12-19T10:08:02.168Z,77.57
2017-12-19T10:11:03.430Z,77.63
2017-12-19T10:14:04.679Z,77.90
2017-12-19T10:17:05.933Z,67.53
2017-12-19T10:20:07.210Z,74.37
2017-12-19T10:23:09.275Z,72.20
2017-12-19T10:26:11.269Z,63.20
2017-12-19T10:29:12.576Z,83.37
2017-12-19T10:32:13.865Z,89.90
2017-12-19T10:35:15.157Z,86.37
2017-12-19T10:38:16.437Z,89.70
2017-12-19T10:41:18.422Z,79.77
2017-12-19T10:44:19.657Z,81.70
2017-12-19T10:47:20.885Z,99.97
2017-12-19T10:50:22.900Z,74.57
2017-12-19T10:53:24.125Z,90.23
2017-12-19T10:56:25.378Z,81.93
2017-12-19T10:59:26.640Z,80.23
2017-12-19T11:02:27.865Z,80.87
2017-12-19T11:05:29.133Z,76.23
2017-12-19T11:08:30.376Z,104.17
2017-12-19T11:11:31.637Z,93.27
2017-12-19T11:14:32.905Z,102.53
2017-12-19T11:17:34.166Z,93.77
2017-12-19T11:20:35.441Z,99.50
2017-12-19T11:23:37.461Z,95.47
2017-12-19T11:26:38.772Z,98.07
2017-12-19T11:29:40.077Z,83.63
2017-12-19T11:32:41.388Z,85.70
2017-12-19T11:35:42.677Z,86.93
2017-12-19T11:38:43.973Z,84.57
2017-12-19T11:41:45.218Z,98.07
2017-12-19T11:44:46.525Z,100.70
2017-12-19T11:47:47.851Z,121.07
2017-12-19T11:50:49.133Z,108.77
2017-12-19T11:53:50.412Z,86.23
2017-12-19T11:56:51.712Z,93.57
2017-12-19T11:59:53.036Z,88.33
2017-12-19T12:02:54.304Z,85.97
2017-12-19T12:06:02.397Z,103.97
2017-12-19T12:09:03.691Z,83.47
2017-12-19T12:12:05.717Z,100.17
2017-12-19T12:15:07.032Z,99.30
2017-12-19T12:18:08.320Z,107.27
2017-12-19T12:21:09.584Z,85.63
2017-12-19T12:24:10.821Z,91.23
2017-12-19T12:27:12.133Z,97.40
2017-12-19T12:30:13.416Z,94.63
2017-12-19T12:33:14.702Z,87.93
2017-12-19T12:36:16.737Z,95.47
2017-12-19T12:39:18.038Z,91.50
2017-12-19T12:42:19.318Z,97.57
2017-12-19T12:45:20.608Z,99.73
2017-12-19T12:48:22.612Z,98.70
2017-12-19T12:51:23.863Z,81.33
2017-12-19T12:54:25.145Z,86.20
2017-12-19T12:57:26.441Z,98.43
2017-12-19T13:00:27.706Z,94.17
2017-12-19T13:03:29.005Z,85.37
2017-12-19T13:06:30.249Z,82.73
2017-12-19T13:09:31.542Z,76.43
2017-12-19T13:12:32.801Z,80.47
2017-12-19T13:15:34.088Z,82.53
2017-12-19T13:18:35.389Z,86.47
2017-12-19T13:21:36.621Z,93.33
2017-12-19T13:24:37.870Z,72.57
2017-12-19T13:27:39.110Z,70.53
2017-12-19T13:30:41.105Z,65.60
2017-12-19T13:33:42.353Z,80.40
2017-12-19T13:36:43.647Z,87.33
2017-12-19T13:39:44.958Z,70.27
2017-12-19T13:42:46.194Z,97.83
2017-12-19T13:45:47.460Z,74.10
2017-12-19T13:48:48.694Z,70.87
2017-12-19T13:51:49.960Z,78.00
2017-12-19T13:54:51.225Z,73.83
2017-12-19T13:57:52.500Z,84.07
2017-12-19T14:00:54.506Z,77.27
2017-12-19T14:03:55.750Z,69.03
2017-12-19T14:06:57.026Z,79.00
2017-12-19T14:09:58.254Z,73.80
2017-12-19T14:12:59.527Z,73.23
2017-12-19T14:16:01.281Z,62.93
2017-12-19T14:19:02.557Z,69.03
2017-12-19T14:22:04.593Z,75.20
2017-12-19T14:25:06.171Z,101.93
2017-12-19T14:28:08.244Z,89.30
2017-12-19T14:31:10.694Z,76.93
2017-12-19T14:34:12.425Z,79.07
2017-12-19T14:37:13.750Z,86.13
2017-12-19T14:40:15.757Z,80.17
2017-12-19T14:43:17.040Z,84.67
2017-12-19T14:46:18.345Z,76.10
2017-12-19T14:49:19.624Z,88.37
2017-12-19T14:52:20.892Z,83.83
2017-12-19T14:55:22.204Z,79.80
2017-12-19T14:58:23.430Z,89.17
2017-12-19T15:01:24.680Z,77.30
2017-12-19T15:04:26.014Z,94.83
2017-12-19T15:07:34.348Z,86.97
2017-12-19T15:10:35.635Z,75.67
2017-12-19T15:13:37.512Z,72.50
2017-12-19T15:16:38.765Z,78.80
2017-12-19T15:19:40.860Z,86.33
2017-12-19T15:22:42.072Z,75.27
2017-12-19T15:25:43.365Z,76.23
2017-12-19T15:28:44.645Z,65.97
2017-12-19T15:31:45.928Z,70.17
2017-12-19T15:34:50.147Z,97.47
2017-12-19T15:37:52.197Z,110.80
2017-12-19T15:40:53.443Z,84.03
2017-12-19T15:43:54.698Z,88.23
2017-12-19T15:46:55.996Z,61.73
2017-12-19T15:49:57.249Z,66.80
2017-12-19T15:52:58.490Z,68.33
2017-12-19T15:55:59.771Z,82.00
2017-12-19T15:59:01.000Z,69.20
2017-12-19T16:02:02.270Z,75.87
2017-12-19T16:05:03.562Z,81.83
2017-12-19T16:08:04.833Z,73.47
2017-12-19T16:11:06.134Z,80.87
2017-12-19T16:14:07.403Z,77.83
2017-12-19T16:17:09.394Z,84.60
2017-12-19T16:20:11.045Z,99.63
2017-12-19T16:23:12.335Z,84.33
2017-12-19T16:26:13.588Z,64.20
2017-12-19T16:29:14.848Z,67.33
2017-12-19T16:32:16.853Z,70.03
2017-12-19T16:35:18.148Z,62.23
2017-12-19T16:38:19.416Z,72.13
2017-12-19T16:41:21.416Z,80.87
2017-12-19T16:44:22.667Z,89.67
2017-12-19T16:47:23.976Z,77.57
2017-12-19T16:50:25.954Z,73.27
2017-12-19T16:53:27.966Z,64.63
2017-12-19T16:56:29.234Z,71.03
2017-12-19T16:59:37.478Z,71.67
2017-12-19T17:02:39.460Z,72.97
2017-12-19T17:05:40.701Z,76.57
2017-12-19T17:08:41.941Z,87.83
2017-12-19T17:11:43.928Z,75.23
2017-12-19T17:14:45.220Z,91.43
2017-12-19T17:17:46.490Z,70.90
2017-12-19T17:20:48.513Z,66.33
2017-12-19T17:23:49.734Z,75.43
2017-12-19T17:26:51.048Z,73.07
2017-12-19T17:29:52.256Z,80.67
2017-12-19T17:32:53.568Z,65.00
2017-12-19T17:35:54.832Z,63.70
2017-12-19T17:38:56.298Z,63.30
2017-12-19T17:41:57.568Z,71.70
2017-12-19T17:44:59.649Z,70.83
2017-12-19T17:48:01.676Z,59.90
2017-12-19T17:51:03.336Z,63.80
2017-12-19T17:54:04.610Z,65.57
2017-12-19T17:57:05.861Z,50.20
2017-12-19T18:00:07.109Z,52.80
2017-12-19T18:03:08.624Z,47.10
2017-12-19T18:06:09.920Z,50.03
2017-12-19T18:09:11.380Z,44.20
2017-12-19T18:12:12.614Z,46.33
2017-12-19T18:15:13.892Z,50.87
2017-12-19T18:18:15.142Z,47.43
2017-12-19T18:21:16.398Z,52.13
2017-12-19T18:24:17.640Z,40.60
2017-12-19T18:27:19.634Z,46.77
2017-12-19T18:30:20.899Z,42.20
2017-12-19T18:33:22.247Z,37.60
2017-12-19T18:36:23.513Z,36.90
2017-12-19T18:39:24.740Z,46.53
2017-12-19T18:42:26.022Z,50.57
2017-12-19T18:45:27.260Z,31.73
2017-12-19T18:48:28.573Z,36.13
2017-12-19T18:51:29.859Z,32.87
2017-12-19T18:54:31.146Z,29.90
2017-12-19T18:57:32.428Z,31.07
2017-12-19T19:00:33.724Z,35.90
2017-12-19T19:03:36.354Z,40.03
2017-12-19T19:06:37.617Z,37.57
2017-12-19T19:09:38.919Z,36.73
2017-12-19T19:12:41.364Z,35.43
2017-12-19T19:15:44.079Z,32.40
2017-12-19T19:18:46.310Z,36.83
2017-12-19T19:21:47.592Z,31.93
2017-12-19T19:24:50.104Z,39.27
2017-12-19T19:27:51.550Z,33.30
2017-12-19T19:30:53.046Z,36.13
2017-12-19T19:33:55.614Z,31.27
2017-12-19T19:36:56.967Z,27.70
2017-12-19T19:39:58.220Z,31.67
2017-12-19T19:42:59.548Z,28.77
2017-12-19T19:46:01.980Z,22.50
2017-12-19T19:49:04.191Z,27.63
2017-12-19T19:52:05.809Z,27.10
2017-12-19T19:55:07.347Z,26.07
2017-12-19T19:58:08.970Z,17.80
2017-12-19T20:01:10.989Z,22.73
2017-12-19T20:04:12.890Z,24.90
2017-12-19T20:07:14.719Z,22.73
2017-12-19T20:10:16.030Z,23.93
2017-12-19T20:13:17.382Z,25.20
2017-12-19T20:16:20.258Z,26.97
2017-12-19T20:19:21.914Z,28.27
2017-12-19T20:22:23.297Z,28.33
2017-12-19T20:25:25.988Z,32.37
2017-12-19T20:28:29.699Z,31.37
2017-12-19T20:31:30.996Z,44.80
2017-12-19T20:34:32.283Z,26.53
2017-12-19T20:37:35.420Z,28.67
2017-12-19T20:40:36.776Z,23.40
2017-12-19T20:43:39.965Z,26.30
2017-12-19T20:46:41.837Z,24.03
2017-12-19T20:49:45.691Z,21.57
2017-12-19T20:52:47.508Z,26.50
2017-12-19T20:55:50.322Z,25.33
2017-12-19T20:58:52.087Z,27.00
2017-12-19T21:01:54.245Z,29.40
2017-12-19T21:04:56.528Z,23.93
2017-12-19T21:07:59.525Z,24.70
2017-12-19T21:11:01.573Z,27.90
2017-12-19T21:14:03.072Z,26.40
2017-12-19T21:17:04.361Z,22.07
2017-12-19T21:20:05.790Z,22.03
2017-12-19T21:23:07.141Z,15.17
2017-12-19T21:26:08.496Z,105.33
2017-12-19T21:29:11.248Z,21.63
2017-12-19T21:32:13.182Z,13.63
2017-12-19T21:35:15.176Z,23.53
2017-12-19T21:38:17.080Z,12.33
2017-12-19T21:41:20.129Z,19.13
2017-12-19T21:44:21.885Z,18.77
2017-12-19T21:47:23.156Z,33.40
2017-12-19T21:50:26.295Z,21.17
2017-12-19T21:53:28.805Z,21.20
2017-12-19T21:56:30.105Z,21.60
2017-12-19T21:59:31.331Z,18.77
2017-12-19T22:02:33.333Z,20.67
2017-12-19T22:05:34.597Z,18.50
2017-12-19T22:08:36.591Z,19.90
2017-12-19T22:11:37.877Z,20.77
2017-12-19T22:14:39.173Z,16.97
2017-12-19T22:17:40.409Z,19.30
2017-12-19T22:20:41.686Z,13.13
2017-12-19T22:23:42.948Z,16.03
2017-12-19T22:26:44.184Z,14.17
2017-12-19T22:29:45.480Z,14.17
2017-12-19T22:32:46.730Z,20.33
2017-12-19T22:35:48.131Z,13.27
2017-12-19T22:38:50.106Z,17.97
2017-12-19T22:41:51.361Z,18.17
2017-12-19T22:44:52.585Z,12.90
2017-12-19T22:47:53.892Z,10.10
2017-12-19T22:50:55.892Z,13.33
2017-12-19T22:53:57.137Z,16.27
2017-12-19T22:56:58.404Z,15.50
2017-12-19T22:59:59.644Z,13.60
2017-12-19T23:03:01.059Z,17.13
2017-12-19T23:06:02.303Z,17.00
2017-12-19T23:09:04.806Z,11.30
2017-12-19T23:12:06.030Z,14.33
2017-12-19T23:15:08.061Z,16.70
2017-12-19T23:18:09.341Z,20.07
2017-12-19T23:21:11.322Z,16.90
2017-12-19T23:24:12.616Z,20.33
2017-12-19T23:27:13.852Z,17.00
2017-12-19T23:30:15.126Z,15.10
2017-12-19T23:33:16.388Z,14.60
2017-12-19T23:36:17.691Z,14.00
2017-12-19T23:39:18.931Z,22.57
2017-12-19T23:42:27.048Z,16.67
2017-12-19T23:45:28.344Z,13.83
2017-12-19T23:48:29.593Z,11.30
2017-12-19T23:51:30.861Z,12.23
2017-12-19T23:54:32.871Z,19.90
2017-12-19T23:57:34.129Z,12.07
